sensor_id;sensor_type;location;lat;lon;timestamp;temperature;humidity
39371;DHT22;25099;51.946;4.838;2023-11-22T00:01:15;8.10;99.90
39371;DHT22;25099;51.946;4.838;2023-11-22T00:03:40;7.40;99.90
39371;DHT22;25099;51.946;4.838;2023-11-22T00:06:06;8.20;99.90
39371;DHT22;25099;51.946;4.838;2023-11-22T00:08:32;8.10;99.90
39371;DHT22;25099;51.946;4.838;2023-11-22T00:11:01;7.30;99.90
39371;DHT22;25099;51.946;4.838;2023-11-22T00:13:27;8.10;99.90
39371;DHT22;25099;51.946;4.838;2023-11-22T00:15:58;7.30;99.90
39371;DHT22;25099;51.946;4.838;2023-11-22T00:18:29;7.20;99.90
39371;DHT22;25099;51.946;4.838;2023-11-22T00:20:56;8.30;99.90
39371;DHT22;25099;51.946;4.838;2023-11-22T00:23:30;7.80;99.90
39371;DHT22;25099;51.946;4.838;2023-11-22T00:25:55;7.20;99.90
39371;DHT22;25099;51.946;4.838;2023-11-22T00:28:27;8.20;99.90
39371;DHT22;25099;51.946;4.838;2023-11-22T00:30:59;8.10;99.90
39371;DHT22;25099;51.946;4.838;2023-11-22T00:33:27;7.80;99.90
39371;DHT22;25099;51.946;4.838;2023-11-22T00:35:58;7.80;99.90
39371;DHT22;25099;51.946;4.838;2023-11-22T00:38:33;8.00;99.90
39371;DHT22;25099;51.946;4.838;2023-11-22T00:41:01;7.80;99.90
39371;DHT22;25099;51.946;4.838;2023-11-22T00:43:36;8.10;99.90
39371;DHT22;25099;51.946;4.838;2023-11-22T00:46:05;7.80;99.90
39371;DHT22;25099;51.946;4.838;2023-11-22T00:48:37;7.60;99.90
39371;DHT22;25099;51.946;4.838;2023-11-22T00:51:03;7.90;99.90
39371;DHT22;25099;51.946;4.838;2023-11-22T00:53:34;7.20;99.90
39371;DHT22;25099;51.946;4.838;2023-11-22T00:56:05;7.90;99.90
39371;DHT22;25099;51.946;4.838;2023-11-22T00:58:31;7.20;99.90
39371;DHT22;25099;51.946;4.838;2023-11-22T01:01:03;7.20;99.90
39371;DHT22;25099;51.946;4.838;2023-11-22T01:03:36;7.10;99.90
39371;DHT22;25099;51.946;4.838;2023-11-22T01:06:04;7.20;99.90
39371;DHT22;25099;51.946;4.838;2023-11-22T01:08:31;7.20;99.90
39371;DHT22;25099;51.946;4.838;2023-11-22T01:10:57;7.10;99.90
39371;DHT22;25099;51.946;4.838;2023-11-22T01:13:29;7.20;99.90
39371;DHT22;25099;51.946;4.838;2023-11-22T01:16:01;7.70;99.90
39371;DHT22;25099;51.946;4.838;2023-11-22T01:18:33;7.20;99.90
39371;DHT22;25099;51.946;4.838;2023-11-22T01:21:06;7.10;99.90
39371;DHT22;25099;51.946;4.838;2023-11-22T01:23:33;7.00;99.90
39371;DHT22;25099;51.946;4.838;2023-11-22T01:26:04;8.20;99.90
39371;DHT22;25099;51.946;4.838;2023-11-22T01:28:30;7.00;99.90
39371;DHT22;25099;51.946;4.838;2023-11-22T01:31:02;7.20;99.90
39371;DHT22;25099;51.946;4.838;2023-11-22T01:33:30;8.10;99.90
39371;DHT22;25099;51.946;4.838;2023-11-22T01:36:09;8.00;99.90
39371;DHT22;25099;51.946;4.838;2023-11-22T01:38:47;7.70;99.90
39371;DHT22;25099;51.946;4.838;2023-11-22T01:41:44;7.70;99.90
39371;DHT22;25099;51.946;4.838;2023-11-22T01:44:28;7.10;99.90
39371;DHT22;25099;51.946;4.838;2023-11-22T01:46:53;7.80;99.90
39371;DHT22;25099;51.946;4.838;2023-11-22T01:49:22;7.00;99.90
39371;DHT22;25099;51.946;4.838;2023-11-22T01:51:57;7.70;99.90
39371;DHT22;25099;51.946;4.838;2023-11-22T01:54:35;7.50;99.90
39371;DHT22;25099;51.946;4.838;2023-11-22T01:57:02;7.60;99.90
39371;DHT22;25099;51.946;4.838;2023-11-22T02:29:15;7.00;99.90
39371;DHT22;25099;51.946;4.838;2023-11-22T02:31:42;7.00;99.90
39371;DHT22;25099;51.946;4.838;2023-11-22T02:34:08;6.90;99.90
39371;DHT22;25099;51.946;4.838;2023-11-22T02:36:34;7.40;99.90
39371;DHT22;25099;51.946;4.838;2023-11-22T02:39:00;7.00;99.90
39371;DHT22;25099;51.946;4.838;2023-11-22T02:41:27;6.90;99.90
39371;DHT22;25099;51.946;4.838;2023-11-22T02:43:55;6.90;99.90
39371;DHT22;25099;51.946;4.838;2023-11-22T02:46:20;6.90;99.90
39371;DHT22;25099;51.946;4.838;2023-11-22T02:48:46;6.80;99.90
39371;DHT22;25099;51.946;4.838;2023-11-22T02:51:12;6.80;99.90
39371;DHT22;25099;51.946;4.838;2023-11-22T02:53:39;6.80;99.90
39371;DHT22;25099;51.946;4.838;2023-11-22T02:56:09;6.80;99.90
39371;DHT22;25099;51.946;4.838;2023-11-22T02:58:34;6.70;99.90
39371;DHT22;25099;51.946;4.838;2023-11-22T03:01:00;6.70;99.90
39371;DHT22;25099;51.946;4.838;2023-11-22T03:03:26;6.70;99.90
39371;DHT22;25099;51.946;4.838;2023-11-22T03:05:52;6.70;99.90
39371;DHT22;25099;51.946;4.838;2023-11-22T03:08:19;6.70;99.90
39371;DHT22;25099;51.946;4.838;2023-11-22T03:10:45;6.70;99.90
39371;DHT22;25099;51.946;4.838;2023-11-22T03:13:10;6.70;99.90
39371;DHT22;25099;51.946;4.838;2023-11-22T03:15:36;6.70;99.90
39371;DHT22;25099;51.946;4.838;2023-11-22T03:18:02;6.70;99.90
39371;DHT22;25099;51.946;4.838;2023-11-22T03:20:28;6.70;99.90
39371;DHT22;25099;51.946;4.838;2023-11-22T03:22:54;6.90;99.90
39371;DHT22;25099;51.946;4.838;2023-11-22T03:25:20;6.70;99.90
39371;DHT22;25099;51.946;4.838;2023-11-22T03:27:46;7.50;99.90
39371;DHT22;25099;51.946;4.838;2023-11-22T03:30:12;6.70;99.90
39371;DHT22;25099;51.946;4.838;2023-11-22T03:32:40;6.70;99.90
39371;DHT22;25099;51.946;4.838;2023-11-22T03:35:10;6.90;99.90
39371;DHT22;25099;51.946;4.838;2023-11-22T03:37:38;7.90;99.90
39371;DHT22;25099;51.946;4.838;2023-11-22T03:40:04;7.70;99.90
39371;DHT22;25099;51.946;4.838;2023-11-22T03:42:30;6.80;99.90
39371;DHT22;25099;51.946;4.838;2023-11-22T03:44:56;6.50;99.90
39371;DHT22;25099;51.946;4.838;2023-11-22T03:47:24;6.50;99.90
39371;DHT22;25099;51.946;4.838;2023-11-22T03:49:50;7.20;99.90
39371;DHT22;25099;51.946;4.838;2023-11-22T03:52:15;7.10;99.90
39371;DHT22;25099;51.946;4.838;2023-11-22T03:54:43;7.30;99.90
39371;DHT22;25099;51.946;4.838;2023-11-22T03:57:09;6.00;99.90
39371;DHT22;25099;51.946;4.838;2023-11-22T03:59:35;6.50;99.90
39371;DHT22;25099;51.946;4.838;2023-11-22T04:02:01;6.50;99.90
39371;DHT22;25099;51.946;4.838;2023-11-22T04:04:26;6.40;99.90
39371;DHT22;25099;51.946;4.838;2023-11-22T04:06:52;6.50;99.90
39371;DHT22;25099;51.946;4.838;2023-11-22T04:09:18;6.50;99.90
39371;DHT22;25099;51.946;4.838;2023-11-22T04:11:44;6.50;99.90
39371;DHT22;25099;51.946;4.838;2023-11-22T04:14:09;6.50;99.90
39371;DHT22;25099;51.946;4.838;2023-11-22T04:16:35;6.50;99.90
39371;DHT22;25099;51.946;4.838;2023-11-22T04:19:01;6.50;99.90
39371;DHT22;25099;51.946;4.838;2023-11-22T04:21:27;6.50;99.90
39371;DHT22;25099;51.946;4.838;2023-11-22T04:23:53;6.50;99.90
39371;DHT22;25099;51.946;4.838;2023-11-22T04:26:19;6.50;99.90
39371;DHT22;25099;51.946;4.838;2023-11-22T04:28:46;6.50;99.90
39371;DHT22;25099;51.946;4.838;2023-11-22T04:31:11;6.50;99.90
39371;DHT22;25099;51.946;4.838;2023-11-22T04:33:37;6.50;99.90
39371;DHT22;25099;51.946;4.838;2023-11-22T04:36:04;6.60;99.90
39371;DHT22;25099;51.946;4.838;2023-11-22T04:38:30;6.60;99.90
39371;DHT22;25099;51.946;4.838;2023-11-22T04:40:55;6.60;99.90
39371;DHT22;25099;51.946;4.838;2023-11-22T04:43:21;6.60;99.90
39371;DHT22;25099;51.946;4.838;2023-11-22T04:45:47;6.60;99.90
39371;DHT22;25099;51.946;4.838;2023-11-22T04:48:12;6.60;99.90
39371;DHT22;25099;51.946;4.838;2023-11-22T04:50:40;6.60;99.90
39371;DHT22;25099;51.946;4.838;2023-11-22T04:53:06;6.60;99.90
39371;DHT22;25099;51.946;4.838;2023-11-22T04:55:31;6.60;99.90
39371;DHT22;25099;51.946;4.838;2023-11-22T04:57:57;6.60;99.90
39371;DHT22;25099;51.946;4.838;2023-11-22T05:00:23;6.60;99.90
39371;DHT22;25099;51.946;4.838;2023-11-22T05:02:49;6.60;99.90
39371;DHT22;25099;51.946;4.838;2023-11-22T05:05:15;6.60;99.90
39371;DHT22;25099;51.946;4.838;2023-11-22T05:07:40;6.60;99.90
39371;DHT22;25099;51.946;4.838;2023-11-22T05:10:06;6.60;99.90
39371;DHT22;25099;51.946;4.838;2023-11-22T05:12:34;6.60;99.90
39371;DHT22;25099;51.946;4.838;2023-11-22T05:15:01;6.60;99.90
39371;DHT22;25099;51.946;4.838;2023-11-22T05:17:28;6.50;99.90
39371;DHT22;25099;51.946;4.838;2023-11-22T05:19:54;6.60;99.90
39371;DHT22;25099;51.946;4.838;2023-11-22T05:22:19;6.60;99.90
39371;DHT22;25099;51.946;4.838;2023-11-22T05:24:45;6.60;99.90
39371;DHT22;25099;51.946;4.838;2023-11-22T05:27:10;6.60;99.90
39371;DHT22;25099;51.946;4.838;2023-11-22T05:29:36;6.60;99.90
39371;DHT22;25099;51.946;4.838;2023-11-22T05:32:02;6.60;99.90
39371;DHT22;25099;51.946;4.838;2023-11-22T05:34:29;6.60;99.90
39371;DHT22;25099;51.946;4.838;2023-11-22T05:36:54;6.70;99.90
39371;DHT22;25099;51.946;4.838;2023-11-22T05:39:20;6.60;99.90
39371;DHT22;25099;51.946;4.838;2023-11-22T05:41:48;6.70;99.90
39371;DHT22;25099;51.946;4.838;2023-11-22T05:44:14;6.60;99.90
39371;DHT22;25099;51.946;4.838;2023-11-22T05:46:41;6.70;99.90
39371;DHT22;25099;51.946;4.838;2023-11-22T05:49:07;6.60;99.90
39371;DHT22;25099;51.946;4.838;2023-11-22T05:51:33;6.70;99.90
39371;DHT22;25099;51.946;4.838;2023-11-22T05:54:03;6.70;99.90
39371;DHT22;25099;51.946;4.838;2023-11-22T05:57:00;7.40;99.90
39371;DHT22;25099;51.946;4.838;2023-11-22T05:59:32;6.80;99.90
39371;DHT22;25099;51.946;4.838;2023-11-22T06:02:05;7.40;99.90
39371;DHT22;25099;51.946;4.838;2023-11-22T06:04:31;7.50;99.90
39371;DHT22;25099;51.946;4.838;2023-11-22T06:06:57;6.80;99.90
39371;DHT22;25099;51.946;4.838;2023-11-22T06:09:22;7.10;99.90
39371;DHT22;25099;51.946;4.838;2023-11-22T06:11:48;6.70;99.90
39371;DHT22;25099;51.946;4.838;2023-11-22T06:14:14;6.80;99.90
39371;DHT22;25099;51.946;4.838;2023-11-22T06:16:46;7.40;99.90
39371;DHT22;25099;51.946;4.838;2023-11-22T06:19:11;6.50;99.90
39371;DHT22;25099;51.946;4.838;2023-11-22T06:21:42;6.70;99.90
39371;DHT22;25099;51.946;4.838;2023-11-22T06:24:08;6.90;99.90
39371;DHT22;25099;51.946;4.838;2023-11-22T06:26:34;8.10;99.90
39371;DHT22;25099;51.946;4.838;2023-11-22T06:29:04;7.40;99.90
39371;DHT22;25099;51.946;4.838;2023-11-22T06:31:45;6.80;99.90
39371;DHT22;25099;51.946;4.838;2023-11-22T06:34:10;7.50;99.90
39371;DHT22;25099;51.946;4.838;2023-11-22T06:36:36;6.80;99.90
39371;DHT22;25099;51.946;4.838;2023-11-22T06:39:02;6.80;99.90
39371;DHT22;25099;51.946;4.838;2023-11-22T06:41:28;6.90;99.90
39371;DHT22;25099;51.946;4.838;2023-11-22T06:44:03;8.20;99.90
39371;DHT22;25099;51.946;4.838;2023-11-22T06:46:29;6.80;99.90
39371;DHT22;25099;51.946;4.838;2023-11-22T06:49:11;6.80;99.90
39371;DHT22;25099;51.946;4.838;2023-11-22T06:51:37;6.80;99.90
39371;DHT22;25099;51.946;4.838;2023-11-22T06:54:04;7.70;99.90
39371;DHT22;25099;51.946;4.838;2023-11-22T06:56:38;6.70;99.90
39371;DHT22;25099;51.946;4.838;2023-11-22T06:59:06;6.70;99.90
39371;DHT22;25099;51.946;4.838;2023-11-22T07:01:35;7.20;99.90
39371;DHT22;25099;51.946;4.838;2023-11-22T07:04:12;6.60;99.90
39371;DHT22;25099;51.946;4.838;2023-11-22T07:06:38;7.10;99.90
39371;DHT22;25099;51.946;4.838;2023-11-22T07:09:08;7.70;99.90
39371;DHT22;25099;51.946;4.838;2023-11-22T07:11:39;7.50;99.90
39371;DHT22;25099;51.946;4.838;2023-11-22T07:14:05;6.70;99.90
39371;DHT22;25099;51.946;4.838;2023-11-22T07:16:49;6.70;99.90
39371;DHT22;25099;51.946;4.838;2023-11-22T07:19:34;5.80;99.90
39371;DHT22;25099;51.946;4.838;2023-11-22T07:22:09;6.50;99.90
39371;DHT22;25099;51.946;4.838;2023-11-22T07:24:42;7.40;99.90
39371;DHT22;25099;51.946;4.838;2023-11-22T07:27:14;7.40;99.90
39371;DHT22;25099;51.946;4.838;2023-11-22T07:29:43;7.70;99.90
39371;DHT22;25099;51.946;4.838;2023-11-22T07:32:11;7.40;99.90
39371;DHT22;25099;51.946;4.838;2023-11-22T07:34:49;7.30;99.90
39371;DHT22;25099;51.946;4.838;2023-11-22T07:37:18;6.60;99.90
39371;DHT22;25099;51.946;4.838;2023-11-22T07:39:43;7.20;99.90
39371;DHT22;25099;51.946;4.838;2023-11-22T07:42:09;7.30;99.90
39371;DHT22;25099;51.946;4.838;2023-11-22T07:44:35;7.80;99.90
39371;DHT22;25099;51.946;4.838;2023-11-22T07:47:03;6.60;99.90
39371;DHT22;25099;51.946;4.838;2023-11-22T07:49:31;6.50;99.90
39371;DHT22;25099;51.946;4.838;2023-11-22T07:51:57;6.50;99.90
39371;DHT22;25099;51.946;4.838;2023-11-22T07:54:22;7.20;99.90
39371;DHT22;25099;51.946;4.838;2023-11-22T07:56:49;6.80;99.90
39371;DHT22;25099;51.946;4.838;2023-11-22T07:59:14;7.60;99.90
39371;DHT22;25099;51.946;4.838;2023-11-22T08:01:44;7.20;99.90
39371;DHT22;25099;51.946;4.838;2023-11-22T08:04:10;7.60;99.90
39371;DHT22;25099;51.946;4.838;2023-11-22T08:06:36;6.60;99.90
39371;DHT22;25099;51.946;4.838;2023-11-22T08:09:05;6.10;99.90
39371;DHT22;25099;51.946;4.838;2023-11-22T08:11:39;6.60;99.90
39371;DHT22;25099;51.946;4.838;2023-11-22T08:14:08;6.60;99.90
39371;DHT22;25099;51.946;4.838;2023-11-22T08:16:34;6.70;99.90
39371;DHT22;25099;51.946;4.838;2023-11-22T08:19:12;7.60;99.90
39371;DHT22;25099;51.946;4.838;2023-11-22T08:21:43;7.50;99.90
39371;DHT22;25099;51.946;4.838;2023-11-22T08:24:17;6.50;99.90
39371;DHT22;25099;51.946;4.838;2023-11-22T08:26:44;6.70;99.90
39371;DHT22;25099;51.946;4.838;2023-11-22T08:29:19;6.70;99.90
39371;DHT22;25099;51.946;4.838;2023-11-22T08:32:03;7.40;99.90
39371;DHT22;25099;51.946;4.838;2023-11-22T08:37:08;6.70;99.90
39371;DHT22;25099;51.946;4.838;2023-11-22T08:39:37;6.90;99.90
39371;DHT22;25099;51.946;4.838;2023-11-22T08:42:02;6.50;99.90
39371;DHT22;25099;51.946;4.838;2023-11-22T08:44:28;6.70;99.90
39371;DHT22;25099;51.946;4.838;2023-11-22T08:46:54;6.80;99.90
39371;DHT22;25099;51.946;4.838;2023-11-22T08:49:19;6.80;99.90
39371;DHT22;25099;51.946;4.838;2023-11-22T08:51:45;6.80;99.90
39371;DHT22;25099;51.946;4.838;2023-11-22T08:54:11;6.80;99.90
39371;DHT22;25099;51.946;4.838;2023-11-22T08:56:37;6.80;99.90
39371;DHT22;25099;51.946;4.838;2023-11-22T08:59:09;6.80;99.90
39371;DHT22;25099;51.946;4.838;2023-11-22T09:01:35;6.90;99.90
39371;DHT22;25099;51.946;4.838;2023-11-22T09:04:01;8.00;99.90
39371;DHT22;25099;51.946;4.838;2023-11-22T09:06:27;6.90;99.90
39371;DHT22;25099;51.946;4.838;2023-11-22T09:08:55;6.90;99.90
39371;DHT22;25099;51.946;4.838;2023-11-22T09:11:20;7.60;99.90
39371;DHT22;25099;51.946;4.838;2023-11-22T09:13:48;7.00;99.90
39371;DHT22;25099;51.946;4.838;2023-11-22T09:16:15;7.00;99.90
39371;DHT22;25099;51.946;4.838;2023-11-22T09:18:42;7.00;99.90
39371;DHT22;25099;51.946;4.838;2023-11-22T09:21:08;7.00;99.90
39371;DHT22;25099;51.946;4.838;2023-11-22T09:23:35;6.90;99.90
39371;DHT22;25099;51.946;4.838;2023-11-22T09:26:02;6.90;99.90
39371;DHT22;25099;51.946;4.838;2023-11-22T09:28:28;7.40;99.90
39371;DHT22;25099;51.946;4.838;2023-11-22T09:31:12;7.00;99.90
39371;DHT22;25099;51.946;4.838;2023-11-22T09:37:04;7.00;99.90
39371;DHT22;25099;51.946;4.838;2023-11-22T09:39:37;6.40;99.90
39371;DHT22;25099;51.946;4.838;2023-11-22T09:42:08;6.20;99.90
39371;DHT22;25099;51.946;4.838;2023-11-22T09:44:33;7.00;99.90
39371;DHT22;25099;51.946;4.838;2023-11-22T09:47:05;7.70;99.90
39371;DHT22;25099;51.946;4.838;2023-11-22T09:50:12;8.00;99.90
39371;DHT22;25099;51.946;4.838;2023-11-22T09:56:13;7.10;99.90
39371;DHT22;25099;51.946;4.838;2023-11-22T09:58:54;8.10;99.90
39371;DHT22;25099;51.946;4.838;2023-11-22T10:01:22;7.10;99.90
39371;DHT22;25099;51.946;4.838;2023-11-22T10:03:50;8.30;99.90
39371;DHT22;25099;51.946;4.838;2023-11-22T10:06:19;6.60;99.90
39371;DHT22;25099;51.946;4.838;2023-11-22T10:08:53;8.00;99.90
39371;DHT22;25099;51.946;4.838;2023-11-22T10:11:42;7.80;99.90
39371;DHT22;25099;51.946;4.838;2023-11-22T10:17:13;7.20;99.90
39371;DHT22;25099;51.946;4.838;2023-11-22T10:20:00;7.90;99.90
39371;DHT22;25099;51.946;4.838;2023-11-22T10:22:55;7.20;99.90
39371;DHT22;25099;51.946;4.838;2023-11-22T10:25:35;7.30;99.90
39371;DHT22;25099;51.946;4.838;2023-11-22T10:37:51;7.30;99.90
39371;DHT22;25099;51.946;4.838;2023-11-22T10:40:45;6.60;99.90
39371;DHT22;25099;51.946;4.838;2023-11-22T10:44:10;8.30;99.90
39371;DHT22;25099;51.946;4.838;2023-11-22T10:49:26;7.40;99.90
39371;DHT22;25099;51.946;4.838;2023-11-22T10:51:54;7.40;99.90
39371;DHT22;25099;51.946;4.838;2023-11-22T11:00:42;8.50;99.90
39371;DHT22;25099;51.946;4.838;2023-11-22T11:03:35;8.00;99.90
39371;DHT22;25099;51.946;4.838;2023-11-22T11:06:08;7.50;99.90
39371;DHT22;25099;51.946;4.838;2023-11-22T11:08:41;7.60;99.90
39371;DHT22;25099;51.946;4.838;2023-11-22T11:11:09;7.60;99.90
39371;DHT22;25099;51.946;4.838;2023-11-22T11:13:35;8.50;99.90
39371;DHT22;25099;51.946;4.838;2023-11-22T11:16:05;7.70;99.90
39371;DHT22;25099;51.946;4.838;2023-11-22T11:18:35;7.70;99.90
39371;DHT22;25099;51.946;4.838;2023-11-22T11:21:10;8.80;99.90
39371;DHT22;25099;51.946;4.838;2023-11-22T11:23:39;8.90;99.90
39371;DHT22;25099;51.946;4.838;2023-11-22T11:26:16;8.70;99.90
39371;DHT22;25099;51.946;4.838;2023-11-22T11:28:44;7.80;99.90
39371;DHT22;25099;51.946;4.838;2023-11-22T11:31:11;8.80;99.90
39371;DHT22;25099;51.946;4.838;2023-11-22T11:37:12;7.60;99.90
39371;DHT22;25099;51.946;4.838;2023-11-22T11:39:49;7.50;99.90
39371;DHT22;25099;51.946;4.838;2023-11-22T11:47:27;8.60;99.90
39371;DHT22;25099;51.946;4.838;2023-11-22T11:50:22;8.60;99.90
39371;DHT22;25099;51.946;4.838;2023-11-22T11:52:50;7.50;99.90
39371;DHT22;25099;51.946;4.838;2023-11-22T11:55:16;8.30;99.90
39371;DHT22;25099;51.946;4.838;2023-11-22T11:57:48;8.60;99.90
39371;DHT22;25099;51.946;4.838;2023-11-22T12:00:14;8.60;99.90
39371;DHT22;25099;51.946;4.838;2023-11-22T12:02:43;7.90;99.90
39371;DHT22;25099;51.946;4.838;2023-11-22T12:05:08;8.00;99.90
39371;DHT22;25099;51.946;4.838;2023-11-22T12:07:37;8.00;99.90
39371;DHT22;25099;51.946;4.838;2023-11-22T12:10:04;8.00;99.90
39371;DHT22;25099;51.946;4.838;2023-11-22T12:12:32;8.00;99.90
39371;DHT22;25099;51.946;4.838;2023-11-22T12:14:57;9.10;99.90
39371;DHT22;25099;51.946;4.838;2023-11-22T12:17:25;8.00;99.90
39371;DHT22;25099;51.946;4.838;2023-11-22T12:19:51;8.00;99.90
39371;DHT22;25099;51.946;4.838;2023-11-22T12:22:17;8.30;99.90
39371;DHT22;25099;51.946;4.838;2023-11-22T12:24:43;8.60;99.90
39371;DHT22;25099;51.946;4.838;2023-11-22T12:27:12;9.00;99.90
39371;DHT22;25099;51.946;4.838;2023-11-22T12:29:54;9.50;99.90
39371;DHT22;25099;51.946;4.838;2023-11-22T12:32:47;9.10;99.90
39371;DHT22;25099;51.946;4.838;2023-11-22T12:35:22;7.40;99.90
39371;DHT22;25099;51.946;4.838;2023-11-22T12:37:48;8.50;99.90
39371;DHT22;25099;51.946;4.838;2023-11-22T12:40:23;8.90;99.90
39371;DHT22;25099;51.946;4.838;2023-11-22T12:42:51;8.10;99.90
39371;DHT22;25099;51.946;4.838;2023-11-22T12:45:21;8.50;99.90
39371;DHT22;25099;51.946;4.838;2023-11-22T12:51:17;8.20;99.90
39371;DHT22;25099;51.946;4.838;2023-11-22T12:53:47;9.20;99.90
39371;DHT22;25099;51.946;4.838;2023-11-22T12:56:14;9.30;99.90
39371;DHT22;25099;51.946;4.838;2023-11-22T12:58:39;9.20;99.90
39371;DHT22;25099;51.946;4.838;2023-11-22T13:01:34;9.00;99.90
39371;DHT22;25099;51.946;4.838;2023-11-22T13:04:11;8.40;99.90
39371;DHT22;25099;51.946;4.838;2023-11-22T13:06:40;9.80;99.90
39371;DHT22;25099;51.946;4.838;2023-11-22T13:09:06;9.30;99.90
39371;DHT22;25099;51.946;4.838;2023-11-22T13:11:49;9.50;99.90
39371;DHT22;25099;51.946;4.838;2023-11-22T13:14:17;9.10;99.90
39371;DHT22;25099;51.946;4.838;2023-11-22T13:16:44;9.00;99.90
39371;DHT22;25099;51.946;4.838;2023-11-22T13:19:10;8.70;99.90
39371;DHT22;25099;51.946;4.838;2023-11-22T13:21:36;9.10;99.90
39371;DHT22;25099;51.946;4.838;2023-11-22T13:24:02;8.90;99.90
39371;DHT22;25099;51.946;4.838;2023-11-22T13:26:29;8.00;99.90
39371;DHT22;25099;51.946;4.838;2023-11-22T13:28:55;8.30;99.90
39371;DHT22;25099;51.946;4.838;2023-11-22T13:31:21;8.20;99.90
39371;DHT22;25099;51.946;4.838;2023-11-22T13:33:47;8.10;99.90
39371;DHT22;25099;51.946;4.838;2023-11-22T13:36:13;8.10;99.90
39371;DHT22;25099;51.946;4.838;2023-11-22T13:38:40;8.80;99.90
39371;DHT22;25099;51.946;4.838;2023-11-22T13:41:05;8.90;99.90
39371;DHT22;25099;51.946;4.838;2023-11-22T13:43:31;9.50;99.90
39371;DHT22;25099;51.946;4.838;2023-11-22T13:45:58;9.00;99.90
39371;DHT22;25099;51.946;4.838;2023-11-22T13:48:25;7.80;99.90
39371;DHT22;25099;51.946;4.838;2023-11-22T13:50:51;8.80;99.90
39371;DHT22;25099;51.946;4.838;2023-11-22T13:53:16;9.10;99.90
39371;DHT22;25099;51.946;4.838;2023-11-22T13:55:52;8.40;99.90
39371;DHT22;25099;51.946;4.838;2023-11-22T13:58:20;8.60;99.90
39371;DHT22;25099;51.946;4.838;2023-11-22T14:00:46;9.20;99.90
39371;DHT22;25099;51.946;4.838;2023-11-22T14:03:25;8.40;99.90
39371;DHT22;25099;51.946;4.838;2023-11-22T14:05:51;8.70;99.90
39371;DHT22;25099;51.946;4.838;2023-11-22T14:08:17;8.70;99.90
39371;DHT22;25099;51.946;4.838;2023-11-22T14:10:43;7.80;99.90
39371;DHT22;25099;51.946;4.838;2023-11-22T14:13:10;8.00;99.90
39371;DHT22;25099;51.946;4.838;2023-11-22T14:15:37;9.20;99.90
39371;DHT22;25099;51.946;4.838;2023-11-22T14:18:13;8.50;99.90
39371;DHT22;25099;51.946;4.838;2023-11-22T14:20:38;7.90;99.90
39371;DHT22;25099;51.946;4.838;2023-11-22T14:23:04;8.50;99.90
39371;DHT22;25099;51.946;4.838;2023-11-22T14:25:32;8.30;99.90
39371;DHT22;25099;51.946;4.838;2023-11-22T14:27:59;8.50;99.90
39371;DHT22;25099;51.946;4.838;2023-11-22T14:30:25;7.70;99.90
39371;DHT22;25099;51.946;4.838;2023-11-22T14:32:55;8.30;99.90
39371;DHT22;25099;51.946;4.838;2023-11-22T14:35:20;7.70;99.90
39371;DHT22;25099;51.946;4.838;2023-11-22T14:37:46;8.30;99.90
39371;DHT22;25099;51.946;4.838;2023-11-22T14:40:12;8.50;99.90
39371;DHT22;25099;51.946;4.838;2023-11-22T14:42:42;7.60;99.90
39371;DHT22;25099;51.946;4.838;2023-11-22T14:45:10;7.60;99.90
39371;DHT22;25099;51.946;4.838;2023-11-22T14:47:37;7.50;99.90
39371;DHT22;25099;51.946;4.838;2023-11-22T14:50:23;8.60;99.90
39371;DHT22;25099;51.946;4.838;2023-11-22T14:52:53;8.20;99.90
39371;DHT22;25099;51.946;4.838;2023-11-22T14:55:19;7.50;99.90
39371;DHT22;25099;51.946;4.838;2023-11-22T14:57:46;8.20;99.90
39371;DHT22;25099;51.946;4.838;2023-11-22T15:00:13;8.20;99.90
39371;DHT22;25099;51.946;4.838;2023-11-22T15:02:40;7.50;99.90
39371;DHT22;25099;51.946;4.838;2023-11-22T15:05:08;8.40;99.90
39371;DHT22;25099;51.946;4.838;2023-11-22T15:07:37;8.50;99.90
39371;DHT22;25099;51.946;4.838;2023-11-22T15:10:09;8.10;99.90
39371;DHT22;25099;51.946;4.838;2023-11-22T15:12:36;7.50;99.90
39371;DHT22;25099;51.946;4.838;2023-11-22T15:15:02;7.50;99.90
39371;DHT22;25099;51.946;4.838;2023-11-22T15:17:38;7.50;99.90
39371;DHT22;25099;51.946;4.838;2023-11-22T15:20:20;7.70;99.90
39371;DHT22;25099;51.946;4.838;2023-11-22T15:22:45;8.30;99.90
39371;DHT22;25099;51.946;4.838;2023-11-22T15:25:11;8.00;99.90
39371;DHT22;25099;51.946;4.838;2023-11-22T15:27:37;8.40;99.90
39371;DHT22;25099;51.946;4.838;2023-11-22T15:30:12;7.70;99.90
39371;DHT22;25099;51.946;4.838;2023-11-22T15:32:38;7.30;99.90
39371;DHT22;25099;51.946;4.838;2023-11-22T15:35:07;7.30;99.90
39371;DHT22;25099;51.946;4.838;2023-11-22T15:37:44;7.20;99.90
39371;DHT22;25099;51.946;4.838;2023-11-22T15:40:13;8.00;99.90
39371;DHT22;25099;51.946;4.838;2023-11-22T15:42:50;7.20;99.90
39371;DHT22;25099;51.946;4.838;2023-11-22T15:45:16;8.00;99.90
39371;DHT22;25099;51.946;4.838;2023-11-22T15:47:54;7.90;99.90
39371;DHT22;25099;51.946;4.838;2023-11-22T15:50:23;7.60;99.90
39371;DHT22;25099;51.946;4.838;2023-11-22T15:52:48;7.20;99.90
39371;DHT22;25099;51.946;4.838;2023-11-22T15:55:14;7.20;99.90
39371;DHT22;25099;51.946;4.838;2023-11-22T15:57:40;8.60;99.90
39371;DHT22;25099;51.946;4.838;2023-11-22T16:00:06;7.00;99.90
39371;DHT22;25099;51.946;4.838;2023-11-22T16:02:36;7.20;99.90
39371;DHT22;25099;51.946;4.838;2023-11-22T16:05:02;8.20;99.90
39371;DHT22;25099;51.946;4.838;2023-11-22T16:07:32;7.20;99.90
39371;DHT22;25099;51.946;4.838;2023-11-22T16:10:03;7.80;99.90
39371;DHT22;25099;51.946;4.838;2023-11-22T16:12:31;7.20;99.90
39371;DHT22;25099;51.946;4.838;2023-11-22T16:14:57;7.90;99.90
39371;DHT22;25099;51.946;4.838;2023-11-22T16:17:24;7.20;99.90
39371;DHT22;25099;51.946;4.838;2023-11-22T16:19:52;7.50;99.90
39371;DHT22;25099;51.946;4.838;2023-11-22T16:22:18;7.30;99.90
39371;DHT22;25099;51.946;4.838;2023-11-22T16:24:45;8.30;99.90
39371;DHT22;25099;51.946;4.838;2023-11-22T16:27:14;8.10;99.90
39371;DHT22;25099;51.946;4.838;2023-11-22T16:29:40;8.30;99.90
39371;DHT22;25099;51.946;4.838;2023-11-22T16:32:06;8.00;99.90
39371;DHT22;25099;51.946;4.838;2023-11-22T16:34:31;7.20;99.90
39371;DHT22;25099;51.946;4.838;2023-11-22T16:36:58;7.20;99.90
39371;DHT22;25099;51.946;4.838;2023-11-22T16:39:23;7.80;99.90
39371;DHT22;25099;51.946;4.838;2023-11-22T16:41:49;7.10;99.90
39371;DHT22;25099;51.946;4.838;2023-11-22T16:44:15;8.10;99.90
39371;DHT22;25099;51.946;4.838;2023-11-22T16:46:45;7.80;99.90
39371;DHT22;25099;51.946;4.838;2023-11-22T16:49:11;7.20;99.90
39371;DHT22;25099;51.946;4.838;2023-11-22T16:51:42;7.20;99.90
39371;DHT22;25099;51.946;4.838;2023-11-22T16:54:14;8.30;99.90
39371;DHT22;25099;51.946;4.838;2023-11-22T16:56:40;7.80;99.90
39371;DHT22;25099;51.946;4.838;2023-11-22T16:59:09;7.20;99.90
39371;DHT22;25099;51.946;4.838;2023-11-22T17:01:40;7.20;99.90
39371;DHT22;25099;51.946;4.838;2023-11-22T17:04:06;8.20;99.90
39371;DHT22;25099;51.946;4.838;2023-11-22T17:06:33;7.90;99.90
39371;DHT22;25099;51.946;4.838;2023-11-22T17:09:01;7.20;99.90
39371;DHT22;25099;51.946;4.838;2023-11-22T17:11:29;8.10;99.90